createdAt,value
2018-06-13T00:02:14.984Z,9.20
2018-06-13T00:04:44.301Z,8.27
2018-06-13T00:07:13.670Z,8.80
2018-06-13T00:09:43.017Z,9.70
2018-06-13T00:12:12.346Z,8.97
2018-06-13T00:14:41.676Z,9.27
2018-06-13T00:17:11.009Z,10.43
2018-06-13T00:19:40.332Z,8.50
2018-06-13T00:22:09.794Z,9.60
2018-06-13T00:24:39.267Z,7.93
2018-06-13T00:27:08.644Z,10.23
2018-06-13T00:29:38.081Z,9.43
2018-06-13T00:32:07.562Z,9.00
2018-06-13T00:34:37.076Z,9.87
2018-06-13T00:37:06.485Z,8.83
2018-06-13T00:39:35.930Z,9.10
2018-06-13T00:42:05.355Z,9.67
2018-06-13T00:44:34.799Z,7.90
2018-06-13T00:47:04.182Z,10.43
2018-06-13T00:49:33.497Z,9.40
2018-06-13T00:52:02.811Z,8.60
2018-06-13T00:54:32.143Z,8.80
2018-06-13T00:57:01.435Z,8.60
2018-06-13T00:59:30.804Z,8.73
2018-06-13T01:02:00.177Z,9.03
2018-06-13T01:04:29.535Z,8.53
2018-06-13T01:06:58.895Z,9.50
2018-06-13T01:09:28.247Z,9.17
2018-06-13T01:11:57.637Z,8.93
2018-06-13T01:14:27.014Z,8.50
2018-06-13T01:16:56.390Z,8.50
2018-06-13T01:19:25.741Z,8.10
2018-06-13T01:21:55.145Z,9.90
2018-06-13T01:24:24.450Z,8.97
2018-06-13T01:26:53.816Z,9.77
2018-06-13T01:29:23.267Z,9.47
2018-06-13T01:31:52.607Z,8.43
2018-06-13T01:34:21.948Z,8.97
2018-06-13T01:36:51.344Z,8.63
2018-06-13T01:39:20.679Z,9.20
2018-06-13T01:41:50.080Z,9.67
2018-06-13T01:44:19.419Z,11.40
2018-06-13T01:46:48.767Z,9.57
2018-06-13T01:49:18.113Z,10.20
2018-06-13T01:51:47.528Z,10.30
2018-06-13T01:54:16.983Z,9.87
2018-06-13T01:56:46.403Z,9.53
2018-06-13T01:59:15.785Z,10.70
2018-06-13T02:01:47.260Z,10.03
2018-06-13T02:04:16.661Z,11.00
2018-06-13T02:06:45.970Z,10.87
2018-06-13T02:09:15.328Z,10.60
2018-06-13T02:11:44.681Z,9.87
2018-06-13T02:14:14.056Z,10.20
2018-06-13T02:16:43.351Z,10.30
2018-06-13T02:19:12.721Z,11.70
2018-06-13T02:21:42.078Z,10.50
2018-06-13T02:24:11.408Z,11.27
2018-06-13T02:26:40.713Z,9.20
2018-06-13T02:29:10.395Z,10.73
2018-06-13T02:31:40.218Z,11.37
2018-06-13T02:34:10.033Z,10.27
2018-06-13T02:36:39.352Z,10.50
2018-06-13T02:39:09.138Z,12.13
2018-06-13T02:41:38.442Z,11.20
2018-06-13T02:44:07.803Z,9.70
2018-06-13T02:46:37.175Z,11.73
2018-06-13T02:49:06.519Z,10.27
2018-06-13T02:51:35.840Z,10.40
2018-06-13T02:54:05.207Z,10.83
2018-06-13T02:56:34.511Z,10.17
2018-06-13T02:59:03.816Z,9.60
2018-06-13T03:01:33.256Z,10.40
2018-06-13T03:04:02.633Z,10.20
2018-06-13T03:06:32.048Z,9.23
2018-06-13T03:09:01.385Z,9.50
2018-06-13T03:11:30.820Z,9.33
2018-06-13T03:14:00.156Z,10.30
2018-06-13T03:16:29.529Z,9.73
2018-06-13T03:18:58.884Z,10.27
2018-06-13T03:21:27.890Z,12.00
2018-06-13T03:23:57.168Z,15.43
2018-06-13T03:26:33.694Z,11.67
2018-06-13T03:29:03.035Z,11.43
2018-06-13T03:31:32.420Z,10.97
2018-06-13T03:34:01.758Z,12.77
2018-06-13T03:36:31.150Z,11.53
2018-06-13T03:39:00.473Z,11.77
2018-06-13T03:41:29.968Z,14.27
2018-06-13T03:43:59.411Z,14.23
2018-06-13T03:46:28.779Z,14.27
2018-06-13T03:49:00.264Z,14.40
2018-06-13T03:51:30.323Z,15.13
2018-06-13T03:53:59.661Z,15.70
2018-06-13T03:56:30.258Z,14.67
2018-06-13T03:58:59.607Z,14.60
2018-06-13T04:01:28.992Z,14.13
2018-06-13T04:03:58.330Z,16.20
2018-06-13T04:06:27.707Z,15.73
2018-06-13T04:08:57.146Z,13.77
2018-06-13T04:11:26.592Z,14.37
2018-06-13T04:13:56.037Z,14.20
2018-06-13T04:16:25.512Z,14.10
2018-06-13T04:18:55.017Z,13.80
2018-06-13T04:21:24.474Z,12.90
2018-06-13T04:23:53.859Z,13.20
2018-06-13T04:26:23.237Z,12.57
2018-06-13T04:28:52.635Z,13.40
2018-06-13T04:31:21.982Z,14.17
2018-06-13T04:33:51.701Z,11.63
2018-06-13T04:36:21.091Z,11.10
2018-06-13T04:38:50.594Z,11.90
2018-06-13T04:41:20.232Z,11.87
2018-06-13T04:43:49.688Z,11.23
2018-06-13T04:46:19.084Z,11.37
2018-06-13T04:48:48.436Z,11.30
2018-06-13T04:51:19.905Z,11.50
2018-06-13T04:53:48.915Z,10.20
2018-06-13T04:56:18.171Z,10.17
2018-06-13T04:58:47.513Z,10.80
2018-06-13T05:01:16.897Z,10.17
2018-06-13T05:03:46.307Z,10.37
2018-06-13T05:06:15.646Z,10.70
2018-06-13T05:08:45.011Z,10.47
2018-06-13T05:11:14.376Z,9.70
2018-06-13T05:13:43.755Z,10.00
2018-06-13T05:16:13.777Z,9.97
2018-06-13T05:18:43.184Z,9.40
2018-06-13T05:21:13.755Z,9.90
2018-06-13T05:23:43.100Z,9.90
2018-06-13T05:26:12.462Z,10.60
2018-06-13T05:28:42.291Z,9.07
2018-06-13T05:31:15.788Z,9.47
2018-06-13T05:33:45.152Z,8.23
2018-06-13T05:36:14.710Z,9.57
2018-06-13T05:38:44.155Z,8.80
2018-06-13T05:41:13.708Z,8.83
2018-06-13T05:43:43.037Z,7.40
2018-06-13T05:46:12.411Z,7.60
2018-06-13T05:48:42.031Z,7.43
2018-06-13T05:51:11.418Z,7.43
2018-06-13T05:53:41.476Z,8.93
2018-06-13T05:56:11.218Z,8.43
2018-06-13T05:58:40.674Z,8.67
2018-06-13T06:01:10.284Z,10.07
2018-06-13T06:03:39.653Z,8.60
2018-06-13T06:06:09.077Z,9.27
2018-06-13T06:08:38.708Z,11.30
2018-06-13T06:11:08.233Z,13.23
2018-06-13T06:13:37.591Z,9.90
2018-06-13T06:16:06.996Z,9.17
2018-06-13T06:18:36.460Z,16.80
2018-06-13T06:21:05.948Z,10.33
2018-06-13T06:23:35.474Z,9.50
2018-06-13T06:26:05.026Z,9.30
2018-06-13T06:28:35.301Z,9.30
2018-06-13T06:31:04.853Z,11.83
2018-06-13T06:33:34.383Z,10.53
2018-06-13T06:36:03.988Z,9.87
2018-06-13T06:38:33.504Z,10.23
2018-06-13T06:41:03.208Z,9.10
2018-06-13T06:43:32.868Z,12.10
2018-06-13T06:46:03.523Z,11.27
2018-06-13T06:48:33.020Z,13.03
2018-06-13T06:51:03.011Z,11.10
2018-06-13T06:53:32.571Z,10.10
2018-06-13T06:56:02.748Z,10.97
2018-06-13T06:58:33.622Z,9.53
2018-06-13T07:01:03.084Z,12.60
2018-06-13T07:03:32.468Z,11.53
2018-06-13T07:06:01.876Z,14.97
2018-06-13T07:08:31.552Z,13.33
2018-06-13T07:11:01.004Z,13.97
2018-06-13T07:13:30.618Z,14.20
2018-06-13T07:16:00.549Z,16.00
2018-06-13T07:18:29.920Z,14.37
2018-06-13T07:20:59.316Z,15.73
2018-06-13T07:23:28.775Z,14.50
2018-06-13T07:25:58.222Z,13.73
2018-06-13T07:28:27.782Z,12.50
2018-06-13T07:30:57.237Z,14.60
2018-06-13T07:33:26.639Z,12.90
2018-06-13T07:35:55.852Z,14.10
2018-06-13T07:38:25.648Z,12.07
2018-06-13T07:40:56.305Z,14.10
2018-06-13T07:43:25.711Z,13.57
2018-06-13T07:45:55.084Z,13.43
2018-06-13T07:48:24.477Z,12.77
2018-06-13T07:50:53.982Z,12.13
2018-06-13T07:53:26.004Z,13.10
2018-06-13T07:55:55.420Z,13.17
2018-06-13T07:58:24.731Z,12.87
2018-06-13T08:00:54.120Z,11.63
2018-06-13T08:03:25.765Z,12.60
2018-06-13T08:05:55.254Z,11.07
2018-06-13T08:08:24.703Z,11.73
2018-06-13T08:10:54.128Z,12.73
2018-06-13T08:13:24.745Z,12.17
2018-06-13T08:15:56.468Z,11.50
2018-06-13T08:18:25.891Z,12.10
2018-06-13T08:20:57.564Z,10.50
2018-06-13T08:23:26.943Z,12.20
2018-06-13T08:25:56.382Z,10.80
2018-06-13T08:28:25.814Z,11.07
2018-06-13T08:30:54.863Z,10.83
2018-06-13T08:33:24.138Z,10.20
2018-06-13T08:35:53.539Z,9.60
2018-06-13T08:38:22.927Z,9.60
2018-06-13T08:40:52.025Z,10.33
2018-06-13T08:43:21.342Z,9.20
2018-06-13T08:45:50.736Z,8.50
2018-06-13T08:48:20.425Z,8.90
2018-06-13T08:50:53.759Z,8.83
2018-06-13T08:53:23.165Z,10.03
2018-06-13T08:55:52.584Z,9.60
2018-06-13T08:58:22.140Z,11.10
2018-06-13T09:00:51.512Z,8.37
2018-06-13T09:03:21.039Z,8.53
2018-06-13T09:05:50.419Z,8.87
2018-06-13T09:08:19.789Z,8.00
2018-06-13T09:10:49.156Z,7.70
2018-06-13T09:13:18.535Z,7.10
2018-06-13T09:15:47.951Z,8.53
2018-06-13T09:18:17.365Z,7.30
2018-06-13T09:20:49.147Z,8.40
2018-06-13T09:23:18.551Z,6.90
2018-06-13T09:25:47.929Z,7.00
2018-06-13T09:28:17.327Z,7.30
2018-06-13T09:30:46.759Z,7.13
2018-06-13T09:33:30.425Z,7.77
2018-06-13T09:35:59.817Z,8.93
2018-06-13T09:38:29.207Z,9.23
2018-06-13T09:40:58.617Z,12.63
2018-06-13T09:43:28.107Z,9.73
2018-06-13T09:46:03.398Z,9.10
2018-06-13T09:48:27.139Z,9.10
2018-06-13T09:50:56.585Z,14.30
2018-06-13T09:53:26.080Z,9.70
2018-06-13T09:55:55.567Z,8.83
2018-06-13T09:58:24.972Z,7.97
2018-06-13T10:00:59.728Z,8.83
2018-06-13T10:03:29.101Z,9.00
2018-06-13T10:05:58.415Z,8.43
2018-06-13T10:08:27.791Z,9.37
2018-06-13T10:10:57.833Z,7.23
2018-06-13T10:13:27.975Z,7.20
2018-06-13T10:15:57.537Z,7.53
2018-06-13T10:18:27.337Z,7.00
2018-06-13T10:20:57.213Z,6.67
2018-06-13T10:23:26.583Z,6.93
2018-06-13T10:25:55.953Z,6.60
2018-06-13T10:28:25.250Z,5.70
2018-06-13T10:30:54.752Z,5.73
2018-06-13T10:33:24.118Z,5.00
2018-06-13T10:35:53.528Z,5.50
2018-06-13T10:38:22.987Z,5.80
2018-06-13T10:40:52.342Z,7.47
2018-06-13T10:43:21.659Z,7.70
2018-06-13T10:45:50.999Z,8.47
2018-06-13T10:48:20.447Z,7.43
2018-06-13T10:50:49.790Z,8.57
2018-06-13T10:53:19.275Z,7.50
2018-06-13T10:55:48.642Z,7.70
2018-06-13T10:58:17.984Z,7.30
2018-06-13T11:00:47.468Z,9.70
2018-06-13T11:03:16.854Z,10.77
2018-06-13T11:05:47.064Z,7.67
2018-06-13T11:08:16.418Z,11.43
2018-06-13T11:10:45.760Z,7.80
2018-06-13T11:13:15.446Z,8.70
2018-06-13T11:15:44.795Z,7.87
2018-06-13T11:18:14.167Z,8.40
2018-06-13T11:20:43.605Z,8.00
2018-06-13T11:23:13.110Z,7.03
2018-06-13T11:25:42.516Z,7.33
2018-06-13T11:28:11.505Z,6.90
2018-06-13T11:30:40.748Z,6.43
2018-06-13T11:33:10.129Z,6.53
2018-06-13T11:35:39.503Z,6.63
2018-06-13T11:38:08.870Z,6.80
2018-06-13T11:40:38.168Z,8.10
2018-06-13T11:43:08.026Z,7.77
2018-06-13T11:45:37.401Z,6.33
2018-06-13T11:48:06.977Z,6.90
2018-06-13T11:50:36.349Z,7.03
2018-06-13T11:53:05.782Z,5.50
2018-06-13T11:55:35.253Z,5.90
2018-06-13T11:58:04.680Z,7.10
2018-06-13T12:00:34.110Z,6.73
2018-06-13T12:03:03.694Z,6.63
2018-06-13T12:05:33.226Z,6.70
2018-06-13T12:08:02.578Z,5.93
2018-06-13T12:10:32.061Z,5.93
2018-06-13T12:13:01.502Z,5.90
2018-06-13T12:15:30.907Z,5.63
2018-06-13T12:18:00.420Z,5.70
2018-06-13T12:20:29.974Z,5.67
2018-06-13T12:22:59.319Z,6.47
2018-06-13T12:25:28.675Z,6.40
2018-06-13T12:27:58.051Z,6.80
2018-06-13T12:30:27.487Z,5.77
2018-06-13T12:32:56.836Z,5.50
2018-06-13T12:35:26.224Z,7.13
2018-06-13T12:37:55.544Z,5.57
2018-06-13T12:40:24.698Z,6.20
2018-06-13T12:42:54.067Z,6.10
2018-06-13T12:45:23.553Z,6.80
2018-06-13T12:47:52.986Z,6.40
2018-06-13T12:50:22.458Z,6.63
2018-06-13T12:52:51.804Z,6.77
2018-06-13T12:55:21.192Z,8.00
2018-06-13T12:57:50.603Z,5.87
2018-06-13T13:00:19.996Z,5.43
2018-06-13T13:02:49.522Z,5.53
2018-06-13T13:05:18.928Z,5.27
2018-06-13T13:07:48.325Z,5.20
2018-06-13T13:10:17.717Z,5.10
2018-06-13T13:12:47.092Z,5.17
2018-06-13T13:15:16.462Z,4.80
2018-06-13T13:17:45.856Z,5.30
2018-06-13T13:20:15.297Z,8.00
2018-06-13T13:22:44.770Z,5.93
2018-06-13T13:25:14.276Z,6.27
2018-06-13T13:27:43.721Z,5.80
2018-06-13T13:30:13.765Z,6.70
2018-06-13T13:32:43.103Z,5.33
2018-06-13T13:35:12.443Z,6.37
2018-06-13T13:37:41.815Z,5.67
2018-06-13T13:40:11.195Z,4.80
2018-06-13T13:42:40.660Z,4.30
2018-06-13T13:45:10.095Z,6.13
2018-06-13T13:47:39.569Z,4.50
2018-06-13T13:50:09.256Z,4.77
2018-06-13T13:52:38.643Z,4.23
2018-06-13T13:55:08.024Z,4.80
2018-06-13T13:57:37.522Z,4.60
2018-06-13T14:00:06.996Z,4.20
2018-06-13T14:02:36.406Z,4.63
2018-06-13T14:05:06.081Z,5.47
2018-06-13T14:07:35.539Z,5.60
2018-06-13T14:10:04.943Z,4.90
2018-06-13T14:12:34.335Z,5.13
2018-06-13T14:15:04.408Z,4.93
2018-06-13T14:17:33.807Z,5.07
2018-06-13T14:20:03.225Z,4.53
2018-06-13T14:22:32.613Z,4.30
2018-06-13T14:25:02.053Z,3.90
2018-06-13T14:27:31.991Z,4.37
2018-06-13T14:30:01.388Z,5.10
2018-06-13T14:32:30.760Z,4.00
2018-06-13T14:35:00.170Z,4.50
2018-06-13T14:37:29.525Z,4.60
2018-06-13T14:39:58.990Z,4.60
2018-06-13T14:42:28.338Z,4.37
2018-06-13T14:44:57.835Z,4.20
2018-06-13T14:47:26.782Z,5.37
2018-06-13T14:49:56.699Z,4.83
2018-06-13T14:52:26.063Z,5.00
2018-06-13T14:54:55.459Z,4.83
2018-06-13T14:57:24.869Z,4.77
2018-06-13T14:59:54.255Z,4.40
2018-06-13T15:02:23.774Z,5.33
2018-06-13T15:04:53.176Z,3.87
2018-06-13T15:07:22.679Z,4.27
2018-06-13T15:09:52.063Z,4.17
2018-06-13T15:12:21.415Z,4.90
2018-06-13T15:14:50.804Z,4.10
2018-06-13T15:17:20.300Z,4.30
2018-06-13T15:19:50.036Z,3.90
2018-06-13T15:22:19.455Z,4.87
2018-06-13T15:24:48.861Z,3.63
2018-06-13T15:27:18.267Z,4.03
2018-06-13T15:29:47.728Z,3.90
2018-06-13T15:32:17.135Z,3.40
2018-06-13T15:34:46.529Z,4.07
2018-06-13T15:37:15.900Z,3.67
2018-06-13T15:39:44.960Z,3.43
2018-06-13T15:42:14.367Z,3.60
2018-06-13T15:44:43.748Z,2.97
2018-06-13T15:47:13.178Z,3.40
2018-06-13T15:49:42.662Z,3.90
2018-06-13T15:52:12.131Z,4.43
2018-06-13T15:54:41.537Z,3.50
2018-06-13T15:57:10.965Z,3.43
2018-06-13T15:59:40.352Z,5.50
2018-06-13T16:02:09.728Z,3.97
2018-06-13T16:04:39.077Z,3.47
2018-06-13T16:07:08.447Z,3.70
2018-06-13T16:09:38.602Z,4.43
2018-06-13T16:12:08.016Z,15.73
2018-06-13T16:14:37.401Z,4.90
2018-06-13T16:17:06.861Z,4.60
2018-06-13T16:19:36.316Z,3.40
2018-06-13T16:22:06.143Z,4.20
2018-06-13T16:24:36.428Z,7.80
2018-06-13T16:27:05.880Z,4.13
2018-06-13T16:29:35.323Z,4.60
2018-06-13T16:32:04.686Z,4.50
2018-06-13T16:34:34.449Z,4.40
2018-06-13T16:37:03.837Z,5.03
2018-06-13T16:39:33.234Z,3.93
2018-06-13T16:42:02.648Z,4.50
2018-06-13T16:44:32.059Z,3.73
2018-06-13T16:47:01.465Z,3.23
2018-06-13T16:49:31.053Z,3.63
2018-06-13T16:52:05.069Z,2.53
2018-06-13T16:54:45.624Z,3.40
2018-06-13T16:57:14.955Z,2.97
2018-06-13T16:59:44.762Z,3.40
2018-06-13T17:02:14.917Z,2.90
2018-06-13T17:04:45.110Z,2.80
2018-06-13T17:07:14.687Z,2.83
2018-06-13T17:09:44.179Z,4.30
2018-06-13T17:12:13.696Z,3.60
2018-06-13T17:14:43.071Z,2.63
2018-06-13T17:17:12.450Z,3.27
2018-06-13T17:19:41.811Z,2.13
2018-06-13T17:22:11.558Z,2.60
2018-06-13T17:24:40.915Z,3.30
2018-06-13T17:27:10.720Z,2.60
2018-06-13T17:29:40.103Z,5.30
2018-06-13T17:32:10.964Z,2.30
2018-06-13T17:34:41.911Z,3.13
2018-06-13T17:37:11.335Z,2.47
2018-06-13T17:39:40.723Z,2.30
2018-06-13T17:42:10.077Z,2.57
2018-06-13T17:44:39.827Z,2.50
2018-06-13T17:47:09.399Z,4.80
2018-06-13T17:49:38.886Z,2.67
2018-06-13T17:52:08.667Z,2.23
2018-06-13T17:54:38.160Z,2.60
2018-06-13T17:57:07.877Z,2.20
2018-06-13T17:59:37.663Z,2.20
2018-06-13T18:02:08.716Z,2.20
2018-06-13T18:04:38.139Z,2.90
2018-06-13T18:07:07.449Z,2.37
2018-06-13T18:09:36.917Z,2.30
2018-06-13T18:12:07.346Z,2.50
2018-06-13T18:14:37.027Z,3.03
2018-06-13T18:17:06.463Z,4.67
2018-06-13T18:19:35.831Z,4.27
2018-06-13T18:22:09.386Z,9.37
2018-06-13T18:24:38.759Z,9.47
2018-06-13T18:27:08.654Z,3.50
2018-06-13T18:29:38.611Z,3.67
2018-06-13T18:32:08.472Z,2.90
2018-06-13T18:34:38.212Z,2.60
2018-06-13T18:37:07.615Z,4.00
2018-06-13T18:39:37.051Z,2.20
2018-06-13T18:42:06.537Z,4.43
2018-06-13T18:44:35.931Z,2.73
2018-06-13T18:47:05.555Z,2.40
2018-06-13T18:49:34.954Z,3.43
2018-06-13T18:52:17.970Z,2.80
2018-06-13T18:54:53.372Z,2.20
2018-06-13T18:57:23.086Z,3.13
2018-06-13T18:59:53.813Z,2.33
2018-06-13T19:02:23.389Z,2.27
2018-06-13T19:04:54.601Z,3.60
2018-06-13T19:07:24.028Z,2.93
2018-06-13T19:09:53.338Z,2.77
2018-06-13T19:12:22.339Z,5.73
2018-06-13T19:14:51.594Z,3.50
2018-06-13T19:17:20.985Z,2.70
2018-06-13T19:19:50.834Z,3.00
2018-06-13T19:22:20.180Z,2.77
2018-06-13T19:24:49.559Z,3.40
2018-06-13T19:27:18.895Z,2.63
2018-06-13T19:29:48.255Z,2.93
2018-06-13T19:32:17.659Z,3.40
2018-06-13T19:34:46.994Z,2.87
2018-06-13T19:37:16.314Z,2.90
2018-06-13T19:39:45.652Z,3.20
2018-06-13T19:42:15.048Z,2.30
2018-06-13T19:44:44.492Z,5.70
2018-06-13T19:47:19.008Z,2.60
2018-06-13T19:49:48.418Z,2.80
2018-06-13T19:52:17.482Z,2.33
2018-06-13T19:54:52.143Z,2.43
2018-06-13T19:57:21.631Z,3.27
2018-06-13T19:59:51.016Z,2.40
2018-06-13T20:02:20.436Z,2.90
2018-06-13T20:04:55.187Z,3.00
2018-06-13T20:07:24.198Z,2.80
2018-06-13T20:09:53.527Z,2.83
2018-06-13T20:12:39.094Z,2.67
2018-06-13T20:15:13.711Z,3.07
2018-06-13T20:17:48.405Z,2.73
2018-06-13T20:20:17.844Z,3.37
2018-06-13T20:22:48.035Z,3.07
2018-06-13T20:25:22.768Z,3.80
2018-06-13T20:27:57.400Z,3.03
2018-06-13T20:30:32.008Z,3.30
2018-06-13T20:33:01.537Z,3.10
2018-06-13T20:35:30.974Z,3.03
2018-06-13T20:38:00.455Z,2.30
2018-06-13T20:40:29.961Z,2.83
2018-06-13T20:42:59.456Z,2.87
2018-06-13T20:45:28.946Z,4.30
2018-06-13T20:47:58.391Z,4.53
2018-06-13T20:50:27.884Z,3.07
2018-06-13T20:52:57.325Z,3.40
2018-06-13T20:55:26.710Z,3.50
2018-06-13T20:57:56.149Z,5.17
2018-06-13T21:00:25.625Z,3.20
2018-06-13T21:02:55.098Z,3.50
2018-06-13T21:05:24.579Z,2.80
2018-06-13T21:07:54.373Z,3.03
2018-06-13T21:10:23.779Z,3.03
2018-06-13T21:12:53.297Z,3.40
2018-06-13T21:15:22.647Z,2.50
2018-06-13T21:17:52.020Z,2.80
2018-06-13T21:20:21.388Z,5.47
2018-06-13T21:22:50.758Z,3.27
2018-06-13T21:25:20.192Z,2.33
2018-06-13T21:27:49.551Z,3.40
2018-06-13T21:30:18.849Z,3.00
2018-06-13T21:32:48.199Z,4.43
2018-06-13T21:35:17.509Z,2.93
2018-06-13T21:37:46.884Z,2.93
2018-06-13T21:40:16.245Z,2.90
2018-06-13T21:42:45.561Z,3.77
2018-06-13T21:45:14.870Z,2.90
2018-06-13T21:47:44.243Z,2.60
2018-06-13T21:50:13.588Z,3.23
2018-06-13T21:52:42.967Z,3.53
2018-06-13T21:55:12.274Z,2.70
2018-06-13T21:57:41.614Z,3.63
2018-06-13T22:00:11.969Z,3.33
2018-06-13T22:02:41.592Z,4.37
2018-06-13T22:05:10.927Z,5.67
2018-06-13T22:07:40.301Z,5.00
2018-06-13T22:10:09.652Z,5.67
2018-06-13T22:12:38.985Z,3.60
2018-06-13T22:15:12.566Z,3.37
2018-06-13T22:17:41.900Z,3.33
2018-06-13T22:20:11.250Z,3.73
2018-06-13T22:22:40.564Z,3.30
2018-06-13T22:25:09.947Z,3.60
2018-06-13T22:27:39.278Z,3.27
2018-06-13T22:30:08.656Z,4.20
2018-06-13T22:32:37.973Z,3.37
2018-06-13T22:35:07.419Z,4.10
2018-06-13T22:37:36.749Z,3.90
2018-06-13T22:40:06.620Z,3.83
2018-06-13T22:42:35.574Z,4.00
2018-06-13T22:45:04.876Z,3.50
2018-06-13T22:47:34.207Z,3.87
2018-06-13T22:50:03.643Z,3.43
2018-06-13T22:52:32.989Z,4.13
2018-06-13T22:55:02.319Z,3.67
2018-06-13T22:57:31.684Z,3.50
2018-06-13T23:00:01.042Z,3.60
2018-06-13T23:02:30.383Z,3.67
2018-06-13T23:04:59.711Z,3.73
2018-06-13T23:07:29.008Z,4.47
2018-06-13T23:09:58.363Z,3.73
2018-06-13T23:12:27.676Z,4.43
2018-06-13T23:14:57.035Z,4.00
2018-06-13T23:17:26.368Z,3.33
2018-06-13T23:19:55.725Z,4.20
2018-06-13T23:22:25.081Z,3.83
2018-06-13T23:24:54.403Z,3.77
2018-06-13T23:27:23.756Z,4.30
2018-06-13T23:29:53.093Z,4.00
2018-06-13T23:32:22.439Z,3.57
2018-06-13T23:34:51.764Z,3.83
2018-06-13T23:37:21.096Z,3.50
2018-06-13T23:39:50.400Z,3.47
2018-06-13T23:42:19.734Z,4.37
2018-06-13T23:44:49.051Z,4.20
2018-06-13T23:47:18.406Z,5.17
2018-06-13T23:49:47.742Z,4.33
2018-06-13T23:52:17.088Z,4.43
2018-06-13T23:54:46.413Z,4.60
2018-06-13T23:57:15.719Z,4.10
2018-06-13T23:59:45.016Z,4.27
